createdAt,value
2019-04-26T00:00:28.143Z,99360.96
2019-04-26T00:05:35.464Z,99350.16
2019-04-26T00:10:40.896Z,99340.80
2019-04-26T00:15:50.075Z,99340.76
2019-04-26T00:20:54.810Z,99338.73
2019-04-26T00:25:59.483Z,99337.55
2019-04-26T00:31:04.052Z,99327.25
2019-04-26T00:36:08.662Z,99328.84
2019-04-26T00:41:14.107Z,99326.30
2019-04-26T00:46:20.924Z,99312.91
2019-04-26T00:51:25.634Z,99313.81
2019-04-26T00:56:31.155Z,99308.59
2019-04-26T01:01:37.787Z,99302.43
2019-04-26T01:06:43.952Z,99301.23
2019-04-26T01:11:48.508Z,99303.34
2019-04-26T01:16:52.998Z,99296.25
2019-04-26T01:22:00.559Z,99286.09
2019-04-26T01:27:06.556Z,99280.56
2019-04-26T01:32:12.851Z,99283.97
2019-04-26T01:37:19.182Z,99281.66
2019-04-26T01:42:28.805Z,99274.88
2019-04-26T01:47:33.610Z,99274.50
2019-04-26T01:52:38.402Z,99265.77
2019-04-26T01:57:43.510Z,99265.98
2019-04-26T02:02:58.286Z,99252.42
2019-04-26T02:08:04.222Z,99252.01
2019-04-26T02:13:08.708Z,99246.14
2019-04-26T02:18:13.180Z,99252.41
2019-04-26T02:23:37.645Z,99248.05
2019-04-26T02:28:42.494Z,99250.33
2019-04-26T02:33:47.022Z,99235.61
2019-04-26T02:38:54.651Z,99234.40
2019-04-26T02:44:02.168Z,99232.66
2019-04-26T02:49:24.585Z,99225.23
2019-04-26T02:54:47.119Z,99219.45
2019-04-26T02:59:54.641Z,99216.14
2019-04-26T03:05:01.589Z,99208.45
2019-04-26T03:10:08.948Z,99205.80
2019-04-26T03:15:19.117Z,99204.38
2019-04-26T03:20:36.326Z,99204.98
2019-04-26T03:25:55.564Z,99198.47
2019-04-26T03:31:24.307Z,99205.87
2019-04-26T03:36:53.351Z,99204.98
2019-04-26T03:42:17.497Z,99202.13
2019-04-26T03:47:25.179Z,99213.73
2019-04-26T03:52:58.317Z,99210.00
2019-04-26T03:58:29.715Z,99199.09
2019-04-26T04:03:58.037Z,99205.91
2019-04-26T04:09:10.007Z,99212.88
2019-04-26T04:14:32.391Z,99198.15
2019-04-26T04:19:47.519Z,99199.85
2019-04-26T04:25:04.274Z,99199.93
2019-04-26T04:30:28.431Z,99186.64
2019-04-26T04:35:35.998Z,99194.89
2019-04-26T04:41:11.977Z,99198.09
2019-04-26T04:46:29.866Z,99207.27
2019-04-26T04:51:37.570Z,99203.25
2019-04-26T04:56:45.727Z,99201.36
2019-04-26T05:02:21.833Z,99201.52
2019-04-26T05:07:50.175Z,99189.89
2019-04-26T05:13:09.572Z,99189.92
2019-04-26T05:18:34.888Z,99171.36
2019-04-26T05:23:57.749Z,99171.36
2019-04-26T05:29:40.354Z,99177.74
2019-04-26T05:35:23.084Z,99175.31
2019-04-26T05:40:49.483Z,99169.56
2019-04-26T05:46:34.201Z,99157.23
2019-04-26T05:51:50.885Z,99158.38
2019-04-26T05:57:12.096Z,99157.38
2019-04-26T06:02:39.512Z,99163.25
2019-04-26T06:07:52.241Z,99173.80
2019-04-26T06:13:04.764Z,99173.52
2019-04-26T06:18:32.725Z,99173.52
2019-04-26T06:23:53.822Z,99176.73
2019-04-26T06:29:05.347Z,99164.63
2019-04-26T06:34:20.072Z,99166.77
2019-04-26T06:39:33.291Z,99158.58
2019-04-26T06:44:45.620Z,99154.77
2019-04-26T06:50:16.220Z,99152.55
2019-04-26T06:55:23.824Z,99148.98
2019-04-26T07:01:03.564Z,99131.77
2019-04-26T07:06:14.240Z,99129.05
2019-04-26T07:11:43.140Z,99124.83
2019-04-26T07:16:50.702Z,99119.81
2019-04-26T07:22:17.785Z,99110.52
2019-04-26T07:27:34.168Z,99108.95
2019-04-26T07:32:56.936Z,99102.20
2019-04-26T07:38:54.742Z,99101.20
2019-04-26T07:44:21.571Z,99094.48
2019-04-26T07:49:34.747Z,99090.62
2019-04-26T07:55:15.847Z,99085.76
2019-04-26T08:00:27.868Z,99084.70
2019-04-26T08:05:49.143Z,99077.27
2019-04-26T08:11:04.570Z,99072.87
2019-04-26T08:16:24.838Z,99074.41
2019-04-26T08:21:33.569Z,99071.46
2019-04-26T08:26:41.295Z,99071.99
2019-04-26T08:31:48.942Z,99080.26
2019-04-26T08:37:01.755Z,99072.88
2019-04-26T08:42:12.062Z,99064.52
2019-04-26T08:47:27.596Z,99064.33
2019-04-26T08:52:35.474Z,99064.86
2019-04-26T08:57:42.582Z,99062.19
2019-04-26T09:03:11.692Z,99068.93
2019-04-26T09:08:17.846Z,99071.92
2019-04-26T09:13:25.198Z,99051.99
2019-04-26T09:18:42.079Z,99051.99
2019-04-26T09:23:53.065Z,99045.23
2019-04-26T09:28:59.345Z,99042.36
2019-04-26T09:34:10.428Z,99046.13
2019-04-26T09:39:15.900Z,99057.28
2019-04-26T09:44:33.950Z,99044.05
2019-04-26T09:49:41.170Z,99037.84
2019-04-26T09:54:45.986Z,99043.59
2019-04-26T09:59:51.853Z,99033.53
2019-04-26T10:04:58.036Z,99029.91
2019-04-26T10:10:02.785Z,99022.52
2019-04-26T10:15:10.103Z,99025.11
2019-04-26T10:20:15.192Z,99018.34
2019-04-26T10:25:19.997Z,99020.27
2019-04-26T10:30:24.860Z,99012.61
2019-04-26T10:35:29.538Z,99018.06
2019-04-26T10:40:35.629Z,99014.27
2019-04-26T10:45:40.634Z,99003.70
2019-04-26T10:50:45.254Z,98990.59
2019-04-26T10:55:54.267Z,98992.09
2019-04-26T11:01:03.686Z,98988.56
2019-04-26T11:06:08.208Z,98988.13
2019-04-26T11:11:12.897Z,98980.02
2019-04-26T11:16:17.506Z,98984.03
2019-04-26T11:21:22.470Z,98991.77
2019-04-26T11:26:27.124Z,98972.54
2019-04-26T11:31:31.837Z,98968.72
2019-04-26T11:36:40.116Z,98963.70
2019-04-26T11:41:42.681Z,98962.44
2019-04-26T11:46:47.324Z,98959.77
2019-04-26T11:51:51.763Z,98955.20
2019-04-26T11:56:56.265Z,98935.36
2019-04-26T12:02:00.783Z,98935.13
2019-04-26T12:07:12.855Z,98930.69
2019-04-26T12:12:18.839Z,98941.56
2019-04-26T12:17:23.372Z,98929.00
2019-04-26T12:22:27.903Z,98933.14
2019-04-26T12:27:32.507Z,98929.31
2019-04-26T12:32:37.041Z,98919.09
2019-04-26T12:37:41.644Z,98923.29
2019-04-26T12:42:47.335Z,98915.00
2019-04-26T12:47:56.329Z,98915.03
2019-04-26T12:53:00.923Z,98909.97
2019-04-26T12:58:05.981Z,98904.42
2019-04-26T13:03:20.285Z,98906.88
2019-04-26T13:08:18.805Z,98895.20
2019-04-26T13:13:27.748Z,98890.64
2019-04-26T13:18:32.468Z,98895.94
2019-04-26T13:23:36.911Z,98890.26
2019-04-26T13:28:41.401Z,98888.72
2019-04-26T13:33:45.977Z,98885.23
2019-04-26T13:38:50.413Z,98866.86
2019-04-26T13:43:57.147Z,98858.69
2019-04-26T13:49:02.904Z,98855.98
2019-04-26T13:54:07.464Z,98855.30
2019-04-26T13:59:12.008Z,98860.30
2019-04-26T14:04:16.477Z,98858.00
2019-04-26T14:09:21.017Z,98856.51
2019-04-26T14:14:25.546Z,98847.27
2019-04-26T14:19:30.107Z,98845.86
2019-04-26T14:24:39.381Z,98841.25
2019-04-26T14:29:43.927Z,98841.84
2019-04-26T14:34:48.477Z,98844.66
2019-04-26T14:39:55.284Z,98844.77
2019-04-26T14:45:02.198Z,98841.70
2019-04-26T14:50:14.247Z,98845.25
2019-04-26T14:55:16.662Z,98839.99
2019-04-26T15:00:28.735Z,98843.96
2019-04-26T15:05:38.140Z,98846.41
2019-04-26T15:10:48.800Z,98840.36
2019-04-26T15:15:52.577Z,98839.79
2019-04-26T15:20:58.700Z,98830.39
2019-04-26T15:26:03.399Z,98830.39
2019-04-26T15:31:07.859Z,98832.48
2019-04-26T15:36:14.526Z,98837.55
2019-04-26T15:41:25.712Z,98834.80
2019-04-26T15:46:34.405Z,98820.18
2019-04-26T15:51:40.484Z,98817.89
2019-04-26T15:56:49.316Z,98818.00
2019-04-26T16:01:56.108Z,98820.55
2019-04-26T16:06:59.609Z,98820.03
2019-04-26T16:12:04.535Z,98826.31
2019-04-26T16:17:09.333Z,98829.00
2019-04-26T16:22:13.958Z,98822.52
2019-04-26T16:27:18.600Z,98817.09
2019-04-26T16:32:37.555Z,98821.59
2019-04-26T16:37:43.690Z,98819.22
2019-04-26T16:42:55.117Z,98822.78
2019-04-26T16:47:57.243Z,98829.34
2019-04-26T16:53:01.703Z,98827.61
2019-04-26T16:58:06.260Z,98835.22
2019-04-26T17:03:10.879Z,98842.29
2019-04-26T17:08:19.177Z,98850.53
2019-04-26T17:13:30.083Z,98850.27
2019-04-26T17:18:33.577Z,98853.16
2019-04-26T17:23:49.517Z,98854.60
2019-04-26T17:28:55.558Z,98858.14
2019-04-26T17:34:00.486Z,98857.75
2019-04-26T17:39:12.531Z,98859.36
2019-04-26T17:44:21.365Z,98860.41
2019-04-26T17:49:27.245Z,98859.12
2019-04-26T17:54:44.116Z,98865.63
2019-04-26T17:59:36.844Z,98860.84
2019-04-26T18:04:43.022Z,98861.63
2019-04-26T18:09:47.237Z,98875.68
2019-04-26T18:14:52.560Z,98880.13
2019-04-26T18:20:08.856Z,98885.23
2019-04-26T18:25:14.719Z,98887.80
2019-04-26T18:30:19.452Z,98892.72
2019-04-26T18:35:24.213Z,98900.80
2019-04-26T18:40:39.000Z,98907.52
2019-04-26T18:45:36.834Z,98914.59
2019-04-26T18:50:41.351Z,98921.66
2019-04-26T18:55:51.100Z,98921.11
2019-04-26T19:00:57.430Z,98917.56
2019-04-26T19:06:05.547Z,98910.77
2019-04-26T19:11:13.042Z,98908.38
2019-04-26T19:16:19.689Z,98909.32
2019-04-26T19:21:32.290Z,98914.89
2019-04-26T19:26:35.309Z,98910.34
2019-04-26T19:31:41.268Z,98909.32
2019-04-26T19:36:46.643Z,98906.98
2019-04-26T19:41:52.025Z,98905.94
2019-04-26T19:47:04.966Z,98908.91
2019-04-26T19:52:25.243Z,98902.67
2019-04-26T19:57:43.314Z,98903.64
2019-04-26T20:02:47.820Z,98899.74
2019-04-26T20:07:52.478Z,98894.44
2019-04-26T20:12:56.934Z,98885.83
2019-04-26T20:18:03.706Z,98890.19
2019-04-26T20:23:08.073Z,98884.09
2019-04-26T20:28:14.100Z,98883.20
2019-04-26T20:33:19.836Z,98882.23
2019-04-26T20:38:24.455Z,98886.44
2019-04-26T20:43:29.048Z,98892.85
2019-04-26T20:48:35.251Z,98887.27
2019-04-26T20:53:41.766Z,98888.02
2019-04-26T20:58:47.359Z,98884.06
2019-04-26T21:03:51.990Z,98884.77
2019-04-26T21:08:59.059Z,98885.26
2019-04-26T21:14:07.497Z,98893.78
2019-04-26T21:19:12.802Z,98891.24
2019-04-26T21:24:19.922Z,98886.97
2019-04-26T21:29:24.452Z,98893.94
2019-04-26T21:34:30.675Z,98894.14
2019-04-26T21:39:44.198Z,98900.08
2019-04-26T21:44:51.279Z,98899.58
2019-04-26T21:49:58.785Z,98912.61
2019-04-26T21:54:59.329Z,98945.34
2019-04-26T22:00:06.826Z,98959.50
2019-04-26T22:05:15.003Z,98973.13
2019-04-26T22:10:26.846Z,98968.48
2019-04-26T22:15:41.639Z,98961.35
2019-04-26T22:20:54.036Z,98969.48
2019-04-26T22:26:00.221Z,98969.67
2019-04-26T22:31:13.099Z,98979.02
2019-04-26T22:36:18.710Z,98992.08
2019-04-26T22:41:24.369Z,99011.67
2019-04-26T22:46:44.472Z,99016.40
2019-04-26T22:51:37.307Z,99030.00
2019-04-26T22:56:43.874Z,99056.13
2019-04-26T23:01:48.955Z,99046.12
2019-04-26T23:06:56.141Z,99060.25
2019-04-26T23:12:04.065Z,99047.22
2019-04-26T23:17:19.753Z,99067.74
2019-04-26T23:22:30.766Z,99054.31
2019-04-26T23:27:30.578Z,99066.69
2019-04-26T23:32:35.013Z,99060.12
2019-04-26T23:37:39.461Z,99079.28
2019-04-26T23:42:47.546Z,99087.65
2019-04-26T23:47:52.905Z,99103.37
2019-04-26T23:52:57.592Z,99108.45
2019-04-26T23:58:04.944Z,99135.28
